createdAt,value
2023-03-27T00:00:17.046Z,4.40
2023-03-27T00:03:18.205Z,4.50
2023-03-27T00:06:25.369Z,4.40
2023-03-27T00:09:29.159Z,4.40
2023-03-27T00:12:30.852Z,4.40
2023-03-27T00:15:34.428Z,4.40
2023-03-27T00:18:36.629Z,4.40
2023-03-27T00:21:37.491Z,4.40
2023-03-27T00:24:38.390Z,4.40
2023-03-27T00:27:39.391Z,4.50
2023-03-27T00:30:41.525Z,4.50
2023-03-27T00:33:43.095Z,4.60
2023-03-27T00:36:48.425Z,4.60
2023-03-27T00:39:50.668Z,4.70
2023-03-27T00:42:52.760Z,4.80
2023-03-27T00:46:21.473Z,4.80
2023-03-27T00:49:27.908Z,4.80
2023-03-27T00:52:31.584Z,4.80
2023-03-27T00:55:38.629Z,4.80
2023-03-27T00:58:52.718Z,4.80
2023-03-27T01:01:54.154Z,4.70
2023-03-27T01:04:56.907Z,4.70
2023-03-27T01:08:00.271Z,4.70
2023-03-27T01:11:50.316Z,4.70
2023-03-27T01:15:26.660Z,4.70
2023-03-27T01:18:59.047Z,4.60
2023-03-27T01:22:52.779Z,4.50
2023-03-27T01:26:36.195Z,4.50
2023-03-27T01:30:17.505Z,4.50
2023-03-27T01:33:35.440Z,4.50
2023-03-27T01:37:05.750Z,4.50
2023-03-27T01:40:22.040Z,4.50
2023-03-27T01:44:02.410Z,4.50
2023-03-27T01:47:16.722Z,4.50
2023-03-27T01:50:54.579Z,4.50
2023-03-27T01:54:18.458Z,4.50
2023-03-27T01:57:34.858Z,4.50
2023-03-27T02:00:51.603Z,4.60
2023-03-27T02:04:06.837Z,4.60
2023-03-27T02:07:15.828Z,4.60
2023-03-27T02:10:34.277Z,4.60
2023-03-27T02:13:57.911Z,4.60
2023-03-27T02:17:10.433Z,4.60
2023-03-27T02:20:16.590Z,4.60
2023-03-27T02:23:17.800Z,4.70
2023-03-27T02:26:19.368Z,4.60
2023-03-27T02:29:40.119Z,4.60
2023-03-27T02:33:05.420Z,4.60
2023-03-27T02:36:38.376Z,4.60
2023-03-27T02:40:10.493Z,4.60
2023-03-27T02:43:43.547Z,4.60
2023-03-27T02:47:16.720Z,4.60
2023-03-27T02:50:31.077Z,4.60
2023-03-27T02:53:55.059Z,4.60
2023-03-27T02:57:05.919Z,4.60
2023-03-27T03:00:34.658Z,4.70
2023-03-27T03:04:08.242Z,4.70
2023-03-27T03:07:28.443Z,4.70
2023-03-27T03:10:30.190Z,4.70
2023-03-27T03:13:32.861Z,4.70
2023-03-27T03:16:34.215Z,4.70
2023-03-27T03:19:37.328Z,4.70
2023-03-27T03:22:40.204Z,4.70
2023-03-27T03:25:41.798Z,4.70
2023-03-27T03:29:00.149Z,4.70
2023-03-27T03:32:07.859Z,4.70
2023-03-27T03:35:10.295Z,4.60
2023-03-27T03:38:11.723Z,4.60
2023-03-27T03:41:20.232Z,4.60
2023-03-27T03:44:21.985Z,4.60
2023-03-27T03:47:23.451Z,4.70
2023-03-27T03:50:24.910Z,4.70
2023-03-27T03:53:26.341Z,4.60
2023-03-27T03:56:29.770Z,4.70
2023-03-27T03:59:30.704Z,4.60
2023-03-27T04:02:57.322Z,4.60
2023-03-27T04:06:05.662Z,4.70
2023-03-27T04:09:07.401Z,4.70
2023-03-27T04:12:34.716Z,4.70
2023-03-27T04:15:40.449Z,4.60
2023-03-27T04:18:45.658Z,4.70
2023-03-27T04:21:54.758Z,4.60
2023-03-27T04:24:55.873Z,4.70
2023-03-27T04:27:57.761Z,4.70
2023-03-27T04:31:08.663Z,4.70
2023-03-27T04:34:48.463Z,4.70
2023-03-27T04:38:14.948Z,4.60
2023-03-27T04:41:19.322Z,4.70
2023-03-27T04:44:20.211Z,4.60
2023-03-27T04:47:21.675Z,4.60
2023-03-27T04:50:25.504Z,4.70
2023-03-27T04:53:30.466Z,4.60
2023-03-27T04:56:36.804Z,4.60
2023-03-27T04:59:38.011Z,4.60
2023-03-27T05:03:01.523Z,4.60
2023-03-27T05:06:28.970Z,4.60
2023-03-27T05:09:30.067Z,4.60
2023-03-27T05:12:31.108Z,4.60
2023-03-27T05:15:35.748Z,4.50
2023-03-27T05:18:38.668Z,4.50
2023-03-27T05:21:44.217Z,4.50
2023-03-27T05:24:45.963Z,4.70
2023-03-27T05:27:52.834Z,4.60
2023-03-27T05:30:54.928Z,4.60
2023-03-27T05:33:58.820Z,4.60
2023-03-27T05:37:05.990Z,4.40
2023-03-27T05:40:15.394Z,4.10
2023-03-27T05:43:16.516Z,3.90
2023-03-27T05:46:21.085Z,3.90
2023-03-27T05:49:36.147Z,4.00
2023-03-27T05:52:44.381Z,4.10
2023-03-27T05:55:46.560Z,4.10
2023-03-27T05:58:47.441Z,4.10
2023-03-27T06:01:49.833Z,4.10
2023-03-27T06:04:59.392Z,4.10
2023-03-27T06:08:11.850Z,4.30
2023-03-27T06:11:15.555Z,4.30
2023-03-27T06:14:20.738Z,4.40
2023-03-27T06:17:44.091Z,4.50
2023-03-27T06:20:45.411Z,4.40
2023-03-27T06:23:48.003Z,4.40
2023-03-27T06:26:51.276Z,4.30
2023-03-27T06:29:53.810Z,4.10
2023-03-27T06:32:58.859Z,4.00
2023-03-27T06:36:03.364Z,3.90
2023-03-27T06:39:07.083Z,4.00
2023-03-27T06:42:09.036Z,4.00
2023-03-27T06:45:20.156Z,4.00
2023-03-27T06:48:51.373Z,4.00
2023-03-27T06:51:53.704Z,4.00
2023-03-27T06:54:56.029Z,4.10
2023-03-27T06:58:00.192Z,4.20
2023-03-27T07:01:01.427Z,4.10
2023-03-27T07:04:25.376Z,3.90
2023-03-27T07:07:45.178Z,3.60
2023-03-27T07:10:56.267Z,3.50
2023-03-27T07:14:01.636Z,3.50
2023-03-27T07:17:04.553Z,3.30
2023-03-27T07:20:21.119Z,3.10
2023-03-27T07:23:22.888Z,3.00
2023-03-27T07:26:30.910Z,3.00
2023-03-27T07:29:37.424Z,2.90
2023-03-27T07:32:43.856Z,2.70
2023-03-27T07:35:47.722Z,2.70
2023-03-27T07:39:09.642Z,2.80
2023-03-27T07:42:11.455Z,2.80
2023-03-27T07:45:25.652Z,2.90
2023-03-27T07:48:30.882Z,2.80
2023-03-27T07:51:33.332Z,2.80
2023-03-27T07:54:34.507Z,2.90
2023-03-27T07:57:59.990Z,2.80
2023-03-27T08:01:04.895Z,2.80
2023-03-27T08:04:07.384Z,2.80
2023-03-27T08:07:11.880Z,2.80
2023-03-27T08:10:16.343Z,2.70
2023-03-27T08:13:30.509Z,2.80
2023-03-27T08:16:37.216Z,2.80
2023-03-27T08:19:38.342Z,2.70
2023-03-27T08:22:41.516Z,2.80
2023-03-27T08:26:01.498Z,3.00
2023-03-27T08:29:09.507Z,3.00
2023-03-27T08:32:12.094Z,3.00
2023-03-27T08:35:17.119Z,3.00
2023-03-27T08:38:25.999Z,3.10
2023-03-27T08:41:57.358Z,3.10
2023-03-27T08:45:19.996Z,3.00
2023-03-27T08:48:37.759Z,3.00
2023-03-27T08:52:04.195Z,3.00
2023-03-27T08:55:18.961Z,2.90
2023-03-27T08:58:30.811Z,2.80
2023-03-27T09:02:03.692Z,2.80
2023-03-27T09:05:22.519Z,2.80
2023-03-27T09:08:42.566Z,2.90
2023-03-27T09:12:13.270Z,2.90
2023-03-27T09:15:41.318Z,3.10
2023-03-27T09:19:12.965Z,3.30
2023-03-27T09:22:29.187Z,3.40
2023-03-27T09:25:56.777Z,3.50
2023-03-27T09:29:25.807Z,3.70
2023-03-27T09:32:51.845Z,3.70
2023-03-27T09:36:01.443Z,4.00
2023-03-27T09:41:31.593Z,4.40
2023-03-27T09:44:41.146Z,4.60
2023-03-27T09:48:02.603Z,4.80
2023-03-27T09:51:36.664Z,4.80
2023-03-27T09:54:54.761Z,5.30
2023-03-27T09:58:23.745Z,5.40
2023-03-27T10:01:35.378Z,5.50
2023-03-27T10:05:04.508Z,5.80
2023-03-27T10:08:39.394Z,6.00
2023-03-27T10:11:48.198Z,6.10
2023-03-27T10:14:57.374Z,5.90
2023-03-27T10:18:32.007Z,5.90
2023-03-27T10:21:56.651Z,5.70
2023-03-27T10:25:05.133Z,5.50
2023-03-27T10:28:49.252Z,6.00
2023-03-27T10:32:01.552Z,6.30
2023-03-27T10:35:37.117Z,6.50
2023-03-27T10:39:01.060Z,6.90
2023-03-27T10:42:31.496Z,7.70
2023-03-27T10:45:46.038Z,7.10
2023-03-27T10:49:11.167Z,6.60
2023-03-27T10:52:31.816Z,6.40
2023-03-27T10:56:31.889Z,6.30
2023-03-27T10:59:50.935Z,6.70
2023-03-27T11:03:34.712Z,6.30
2023-03-27T11:06:44.133Z,6.00
2023-03-27T11:10:21.869Z,5.90
2023-03-27T11:13:46.728Z,6.00
2023-03-27T11:16:59.049Z,7.40
2023-03-27T11:20:33.861Z,7.70
2023-03-27T11:23:57.980Z,6.90
2023-03-27T11:27:54.209Z,6.80
2023-03-27T11:31:34.539Z,6.90
2023-03-27T11:34:46.623Z,7.30
2023-03-27T11:38:31.753Z,7.80
2023-03-27T11:41:36.275Z,8.20
2023-03-27T11:44:37.361Z,8.50
2023-03-27T11:48:00.286Z,8.80
2023-03-27T11:51:33.502Z,8.50
2023-03-27T11:55:07.230Z,8.80
2023-03-27T11:58:45.401Z,10.70
2023-03-27T12:02:14.731Z,11.40
2023-03-27T12:05:18.490Z,10.20
2023-03-27T12:08:46.338Z,9.00
2023-03-27T12:12:24.840Z,8.10
2023-03-27T12:15:49.196Z,7.50
2023-03-27T12:19:29.590Z,7.40
2023-03-27T12:23:16.011Z,7.40
2023-03-27T12:26:38.195Z,7.20
2023-03-27T12:30:18.152Z,9.90
2023-03-27T12:33:46.856Z,9.30
2023-03-27T12:36:50.032Z,12.50
2023-03-27T12:39:59.845Z,13.10
2023-03-27T12:43:22.052Z,14.80
2023-03-27T12:46:28.599Z,15.10
2023-03-27T12:49:47.554Z,10.90
2023-03-27T12:52:54.496Z,8.80
2023-03-27T12:56:17.756Z,7.80
2023-03-27T12:59:28.017Z,7.60
2023-03-27T13:02:57.777Z,7.60
2023-03-27T13:06:30.375Z,12.00
2023-03-27T13:10:21.393Z,15.60
2023-03-27T13:14:04.020Z,16.20
2023-03-27T13:17:27.689Z,12.00
2023-03-27T13:21:07.852Z,8.70
2023-03-27T13:24:23.475Z,7.90
2023-03-27T13:27:54.872Z,7.40
2023-03-27T13:30:59.601Z,7.30
2023-03-27T13:34:39.156Z,6.60
2023-03-27T13:37:58.327Z,6.40
2023-03-27T13:41:45.422Z,6.20
2023-03-27T13:45:37.942Z,6.10
2023-03-27T13:49:19.822Z,6.20
2023-03-27T13:53:17.460Z,6.20
2023-03-27T13:57:04.415Z,6.20
2023-03-27T14:00:48.091Z,6.40
2023-03-27T14:04:33.498Z,6.40
2023-03-27T14:08:08.773Z,6.40
2023-03-27T14:12:22.573Z,6.40
2023-03-27T14:15:30.639Z,6.40
2023-03-27T14:19:29.982Z,6.80
2023-03-27T14:22:53.658Z,7.30
2023-03-27T14:26:05.968Z,7.40
2023-03-27T14:29:11.701Z,7.80
2023-03-27T14:32:18.355Z,10.10
2023-03-27T14:35:46.243Z,12.10
2023-03-27T14:38:50.076Z,8.50
2023-03-27T14:42:04.128Z,8.50
2023-03-27T14:45:27.666Z,9.80
2023-03-27T14:48:39.602Z,8.30
2023-03-27T14:51:42.306Z,6.90
2023-03-27T14:54:55.767Z,7.00
2023-03-27T14:58:11.296Z,7.60
2023-03-27T15:01:17.458Z,7.90
2023-03-27T15:04:27.356Z,8.70
2023-03-27T15:07:36.281Z,8.30
2023-03-27T15:10:52.632Z,8.80
2023-03-27T15:13:56.938Z,10.30
2023-03-27T15:17:15.534Z,10.40
2023-03-27T15:20:24.401Z,11.80
2023-03-27T15:24:01.862Z,14.10
2023-03-27T15:27:04.878Z,14.20
2023-03-27T15:30:35.524Z,13.40
2023-03-27T15:34:03.619Z,15.30
2023-03-27T15:37:16.776Z,15.10
2023-03-27T15:40:24.164Z,16.70
2023-03-27T15:43:27.594Z,17.20
2023-03-27T15:46:45.521Z,17.30
2023-03-27T15:49:46.837Z,16.80
2023-03-27T15:52:53.937Z,16.60
2023-03-27T15:55:56.302Z,16.90
2023-03-27T15:59:05.616Z,16.90
2023-03-27T16:02:14.280Z,16.60
2023-03-27T16:05:18.478Z,15.70
2023-03-27T16:08:37.540Z,15.00
2023-03-27T16:11:46.159Z,14.00
2023-03-27T16:14:47.183Z,13.70
2023-03-27T16:17:50.432Z,12.50
2023-03-27T16:20:51.609Z,13.40
2023-03-27T16:23:52.567Z,11.90
2023-03-27T16:26:54.902Z,11.30
2023-03-27T16:29:56.474Z,8.80
2023-03-27T16:32:57.653Z,7.20
2023-03-27T16:35:59.056Z,6.40
2023-03-27T16:38:59.991Z,6.40
2023-03-27T16:42:00.835Z,6.50
2023-03-27T16:45:02.105Z,6.40
2023-03-27T16:48:04.102Z,6.20
2023-03-27T16:51:05.940Z,6.10
2023-03-27T16:54:07.575Z,5.90
2023-03-27T16:57:08.964Z,5.70
2023-03-27T17:00:11.920Z,5.60
2023-03-27T17:03:12.911Z,5.40
2023-03-27T17:06:15.420Z,5.30
2023-03-27T17:09:16.313Z,5.20
2023-03-27T17:12:17.218Z,5.10
2023-03-27T17:15:18.125Z,4.90
2023-03-27T17:18:19.439Z,4.80
2023-03-27T17:21:20.461Z,4.70
2023-03-27T17:24:21.441Z,4.60
2023-03-27T17:27:22.573Z,4.50
2023-03-27T17:30:36.763Z,4.60
2023-03-27T17:33:39.528Z,4.60
2023-03-27T17:36:47.468Z,4.60
2023-03-27T17:39:55.647Z,4.60
2023-03-27T17:42:56.829Z,4.50
2023-03-27T17:45:57.983Z,4.40
2023-03-27T17:48:59.153Z,4.40
2023-03-27T17:52:00.094Z,4.40
2023-03-27T17:55:01.319Z,4.40
2023-03-27T17:58:09.266Z,4.40
2023-03-27T18:01:21.656Z,4.40
2023-03-27T18:04:23.124Z,4.40
2023-03-27T18:07:24.408Z,4.30
2023-03-27T18:10:25.578Z,4.40
2023-03-27T18:13:28.157Z,4.40
2023-03-27T18:16:29.114Z,4.40
2023-03-27T18:19:31.084Z,4.40
2023-03-27T18:22:32.335Z,4.40
2023-03-27T18:25:33.460Z,4.40
2023-03-27T18:28:36.050Z,4.30
2023-03-27T18:31:37.331Z,4.00
2023-03-27T18:34:38.221Z,3.40
2023-03-27T18:37:39.701Z,3.10
2023-03-27T18:40:40.592Z,3.10
2023-03-27T18:43:41.819Z,3.10
2023-03-27T18:46:42.762Z,3.10
2023-03-27T18:49:44.772Z,3.10
2023-03-27T18:52:45.978Z,3.10
2023-03-27T18:55:52.619Z,3.10
2023-03-27T18:58:53.593Z,3.10
2023-03-27T19:01:54.461Z,3.10
2023-03-27T19:04:55.775Z,3.10
2023-03-27T19:07:59.509Z,3.20
2023-03-27T19:11:01.142Z,3.20
2023-03-27T19:14:23.386Z,3.10
2023-03-27T19:17:44.477Z,3.10
2023-03-27T19:21:11.798Z,3.10
2023-03-27T19:24:18.596Z,3.30
2023-03-27T19:27:24.174Z,3.20
2023-03-27T19:30:25.665Z,3.20
2023-03-27T19:33:29.684Z,3.00
2023-03-27T19:36:32.523Z,2.80
2023-03-27T19:39:33.288Z,2.70
2023-03-27T19:42:34.626Z,2.50
2023-03-27T19:45:35.556Z,2.40
2023-03-27T19:48:37.143Z,2.40
2023-03-27T19:51:41.983Z,2.30
2023-03-27T19:54:46.897Z,2.10
2023-03-27T19:57:47.693Z,1.90
2023-03-27T20:00:56.304Z,1.90
2023-03-27T20:03:58.903Z,1.80
2023-03-27T20:07:02.253Z,1.70
2023-03-27T20:10:04.396Z,1.50
2023-03-27T20:13:05.194Z,1.50
2023-03-27T20:16:08.316Z,1.40
2023-03-27T20:19:09.622Z,1.30
2023-03-27T20:22:12.204Z,1.30
2023-03-27T20:25:16.120Z,1.20
2023-03-27T20:28:18.528Z,1.10
2023-03-27T20:31:20.841Z,1.10
2023-03-27T20:34:22.867Z,1.10
2023-03-27T20:37:27.355Z,1.00
2023-03-27T20:40:53.172Z,1.00
2023-03-27T20:44:02.986Z,1.00
2023-03-27T20:47:12.571Z,1.00
2023-03-27T20:50:18.577Z,0.90
2023-03-27T20:53:31.720Z,1.00
2023-03-27T20:56:34.534Z,1.00
2023-03-27T20:59:35.635Z,0.90
2023-03-27T21:02:36.673Z,0.90
2023-03-27T21:05:38.588Z,0.90
2023-03-27T21:08:41.521Z,0.90
2023-03-27T21:11:42.421Z,1.00
2023-03-27T21:14:43.262Z,1.00
2023-03-27T21:17:46.392Z,1.00
2023-03-27T21:20:47.557Z,1.00
2023-03-27T21:23:48.460Z,1.00
2023-03-27T21:26:49.333Z,1.00
2023-03-27T21:29:50.935Z,1.00
2023-03-27T21:32:52.562Z,1.00
2023-03-27T21:35:53.629Z,0.90
2023-03-27T21:38:55.488Z,1.00
2023-03-27T21:41:56.449Z,1.00
2023-03-27T21:44:57.417Z,1.00
2023-03-27T21:47:58.725Z,1.00
2023-03-27T21:51:05.978Z,1.00
2023-03-27T21:54:06.711Z,1.00
2023-03-27T21:57:08.042Z,1.00
2023-03-27T22:00:10.389Z,1.00
2023-03-27T22:03:14.340Z,1.10
2023-03-27T22:06:15.604Z,1.10
2023-03-27T22:09:17.290Z,1.10
2023-03-27T22:12:18.820Z,1.10
2023-03-27T22:15:20.104Z,1.10
2023-03-27T22:18:21.157Z,1.10
2023-03-27T22:21:26.660Z,1.10
2023-03-27T22:24:29.289Z,1.20
2023-03-27T22:27:31.194Z,1.20
2023-03-27T22:30:34.938Z,1.20
2023-03-27T22:33:37.374Z,1.20
2023-03-27T22:36:38.726Z,1.20
2023-03-27T22:39:39.828Z,1.20
2023-03-27T22:42:41.076Z,1.20
2023-03-27T22:45:41.856Z,1.20
2023-03-27T22:48:43.584Z,1.20
2023-03-27T22:51:44.930Z,1.10
2023-03-27T22:54:45.804Z,1.10
2023-03-27T22:57:46.916Z,1.10
2023-03-27T23:00:50.055Z,1.10
2023-03-27T23:03:51.051Z,1.00
2023-03-27T23:06:52.594Z,1.00
2023-03-27T23:09:53.848Z,0.90
2023-03-27T23:12:54.838Z,0.80
2023-03-27T23:15:56.318Z,0.70
2023-03-27T23:18:57.795Z,0.70
2023-03-27T23:21:58.821Z,0.70
2023-03-27T23:24:59.771Z,0.70
2023-03-27T23:28:00.674Z,0.60
2023-03-27T23:31:13.891Z,0.60
2023-03-27T23:34:15.198Z,0.50
2023-03-27T23:37:16.301Z,0.50
2023-03-27T23:40:17.900Z,0.50
2023-03-27T23:43:18.853Z,0.40
2023-03-27T23:46:19.719Z,0.40
2023-03-27T23:49:21.094Z,0.50
2023-03-27T23:52:21.869Z,0.40
2023-03-27T23:55:23.245Z,0.30
2023-03-27T23:58:28.899Z,0.40
